Meteo Giornale » Osservazioni meteo Egitto » Cairo

ore: 06:00 - Osservazioni Meteo Cairo
Lat. 30° 8' N Lon. 31° 24' E Alt. 64 metri s.l.m.

sereno Africa/Cairo

26 °C

Sereno

Temp. 24 Ore

26 °C

35 °C

Nord

3.7 Km/h

Dew point 23 °C

Umidità 83 %

Visibilità  10 Km

Il sole sorge alle ore 05:09

Il sole tramonta alle ore 18:52

Data e Ora Cielo e Fenomeni T °C DP °C Um. % Pres. hPa Vis. km Vento km/h
Oggi h: 06:00 sereno Sereno 26 23 83 1008 10 N 3.7
Oggi h: 05:30 sereno Sereno 26 22 78 1008 10 N 3.7
Oggi h: 05:00 sereno Sereno 26 22 78 1008 10 N 3.7
Oggi h: 04:30 sereno Sereno 26 22 78 1009 10 N 3.7
Oggi h: 04:00 sereno Sereno 26 22 78 1008 10 N 5.5
Oggi h: 03:30 sereno Sereno 26 21 73 1008 10 N 5.5
Oggi h: 03:00 sereno Sereno 27 21 69 1008 10 N 3.7
Oggi h: 02:30 sereno Sereno 27 20 65 1008 10 N 3.7
Oggi h: 02:00 sereno Sereno 27 20 65 1008 10 N 5.5
Oggi h: 01:30 sereno Sereno 27 20 65 1009 10 N/NE 9.3
Oggi h: 01:00 sereno Sereno 28 20 61 1009 10 N/NE 9.3
Oggi h: 00:30 sereno Sereno 28 20 61 1009 10 N/NE 11.1
Oggi h: 00:00 sereno Sereno 28 21 65 1009 10 N/NE 9.3
Ieri h: 23:30 sereno Sereno 28 20 61 1009 10 N 11.1
Ieri h: 23:00 sereno Sereno 29 21 62 1009 10 N 18.5
Ieri h: 22:30 sereno Sereno 29 21 62 1009 10 N 14.8
Ieri h: 22:00 sereno Sereno 30 20 55 1009 10 N 13
Ieri h: 21:30 sereno Sereno 30 18 48 1009 10 N 18.5
Ieri h: 21:00 sereno Sereno 31 19 48 1010 10 N 18.5
Ieri h: 20:30 sereno Sereno 31 18 45 1009 10 N 22.2
Ieri h: 20:00 sereno Sereno 32 18 43 1009 10 N 22.2
Ieri h: 19:30 sereno Sereno 33 17 38 1009 10 N 20.3
Ieri h: 19:00 sereno Sereno 33 16 36 1009 10 N 20.3
Ieri h: 18:30 sereno Sereno 34 17 36 1009 10 N 22.2
Ieri h: 18:00 sereno Sereno 34 20 43 1008 10 N/NE 24
Ieri h: 17:30 sereno Sereno 34 20 43 1008 10 N 22.2
Ieri h: 17:00 sereno Sereno 35 19 39 1008 10 N 22.2
Ieri h: 16:30 sereno Sereno 35 19 39 1008 10 N 20.3
Ieri h: 16:00 sereno Sereno 35 18 36 1009 10 N 18.5
Ieri h: 15:30 sereno Sereno 35 17 34 1009 10 N 18.5
Ieri h: 15:00 sereno Sereno 35 16 32 1009 10 N 18.5
Ieri h: 14:30 sereno Sereno 35 17 34 1010 6 N 18.5
Ieri h: 14:00 sereno Sereno 35 17 34 1009 6 N 13
Ieri h: 13:30 sereno Sereno 35 16 32 1009 6 N 16.7
Ieri h: 13:00 sereno Sereno 34 17 36 1010 6 N/NE 13
Ieri h: 12:30 sereno Sereno 34 16 34 1010 10 N/NO 14.8
Ieri h: 12:00 sereno Sereno 34 19 41 1010 10 N/NO 9.3
Ieri h: 11:30 sereno Sereno 33 17 38 1010 10 NO 13
Ieri h: 11:00 sereno Sereno 32 19 46 1011 10 N/NO 11.1
Ieri h: 10:30 sereno Sereno 32 19 46 1011 10 N/NO 11.1
Ieri h: 10:00 sereno Sereno 31 20 52 1011 10 NO 9.3
Ieri h: 09:30 sereno Sereno 30 20 55 1011 10 N 11.1
Ieri h: 09:00 sereno Sereno 29 20 58 1011 10 N 9.3
Ieri h: 08:30 sereno Sereno 29 21 62 1011 10 N/NE 7.4
Ieri h: 08:00 sereno Sereno 28 22 69 1011 10 N 9.3
Ieri h: 07:30 nuvoloso Nuvoloso 28 22 69 1011 6 N 5.5
Ieri h: 07:00 nuvoloso Nuvoloso 27 23 78 1011 6 N 7.4